createdAt,value
2018-07-30T00:01:26.385Z,3.80
2018-07-30T00:02:26.383Z,4.00
2018-07-30T00:04:19.319Z,4.10
2018-07-30T00:05:19.345Z,4.00
2018-07-30T00:07:12.286Z,3.90
2018-07-30T00:08:12.286Z,3.70
2018-07-30T00:10:05.221Z,3.50
2018-07-30T00:11:05.237Z,3.80
2018-07-30T00:12:58.191Z,3.90
2018-07-30T00:13:58.195Z,4.00
2018-07-30T00:15:51.150Z,3.70
2018-07-30T00:16:51.143Z,3.90
2018-07-30T00:18:44.081Z,3.40
2018-07-30T00:19:44.097Z,3.80
2018-07-30T00:21:37.054Z,3.80
2018-07-30T00:22:37.052Z,3.90
2018-07-30T00:24:29.988Z,3.50
2018-07-30T00:25:30.001Z,3.70
2018-07-30T00:27:22.954Z,3.50
2018-07-30T00:28:22.951Z,4.00
2018-07-30T00:30:15.890Z,3.80
2018-07-30T00:31:15.942Z,3.30
2018-07-30T00:33:08.862Z,3.80
2018-07-30T00:34:08.854Z,3.80
2018-07-30T00:36:01.810Z,3.60
2018-07-30T00:37:01.811Z,3.80
2018-07-30T00:38:54.745Z,4.00
2018-07-30T00:39:54.759Z,3.70
2018-07-30T00:41:47.713Z,4.40
2018-07-30T00:42:47.709Z,4.10
2018-07-30T00:44:40.641Z,3.70
2018-07-30T00:45:40.662Z,4.00
2018-07-30T00:47:33.619Z,4.00
2018-07-30T00:48:33.615Z,4.20
2018-07-30T00:50:26.554Z,4.10
2018-07-30T00:51:26.573Z,4.00
2018-07-30T00:53:19.524Z,4.20
2018-07-30T00:54:19.523Z,4.00
2018-07-30T00:56:12.476Z,4.40
2018-07-30T00:57:12.476Z,3.80
2018-07-30T00:59:05.900Z,4.50
2018-07-30T01:00:05.924Z,3.70
2018-07-30T01:01:58.877Z,4.00
2018-07-30T01:02:58.874Z,4.70
2018-07-30T01:04:51.805Z,4.60
2018-07-30T01:05:51.823Z,4.10
2018-07-30T01:07:44.818Z,4.20
2018-07-30T01:08:44.775Z,3.90
2018-07-30T01:10:37.710Z,4.50
2018-07-30T01:11:37.727Z,4.00
2018-07-30T01:13:30.690Z,4.00
2018-07-30T01:14:30.710Z,4.00
2018-07-30T01:16:23.641Z,4.60
2018-07-30T01:17:23.638Z,4.40
2018-07-30T01:19:16.568Z,4.00
2018-07-30T01:20:16.585Z,3.80
2018-07-30T01:22:09.541Z,4.00
2018-07-30T01:23:09.539Z,4.30
2018-07-30T01:25:02.472Z,3.80
2018-07-30T01:26:02.485Z,4.30
2018-07-30T01:27:55.438Z,4.30
2018-07-30T01:28:55.436Z,4.30
2018-07-30T01:30:48.372Z,4.20
2018-07-30T01:31:48.390Z,4.10
2018-07-30T01:33:41.342Z,4.00
2018-07-30T01:34:41.344Z,3.80
2018-07-30T01:36:34.291Z,4.20
2018-07-30T01:37:34.291Z,3.90
2018-07-30T01:39:27.225Z,4.40
2018-07-30T01:40:27.244Z,4.00
2018-07-30T01:42:20.195Z,3.90
2018-07-30T01:43:20.190Z,4.10
2018-07-30T01:45:13.126Z,3.90
2018-07-30T01:46:13.143Z,4.00
2018-07-30T01:48:06.098Z,4.10
2018-07-30T01:49:06.097Z,4.30
2018-07-30T01:50:59.026Z,4.30
2018-07-30T01:51:59.043Z,3.90
2018-07-30T01:53:52.001Z,3.90
2018-07-30T02:24:19.249Z,3.00
2018-07-30T02:25:19.237Z,3.80
2018-07-30T02:27:12.177Z,4.20
2018-07-30T02:28:12.172Z,3.80
2018-07-30T02:30:05.099Z,3.70
2018-07-30T02:31:05.113Z,3.90
2018-07-30T02:32:58.064Z,3.80
2018-07-30T02:33:58.059Z,4.10
2018-07-30T02:35:50.993Z,3.90
2018-07-30T02:36:51.023Z,4.00
2018-07-30T02:38:43.954Z,3.80
2018-07-30T02:39:43.949Z,4.10
2018-07-30T02:41:36.881Z,3.60
2018-07-30T02:42:36.893Z,3.90
2018-07-30T02:44:29.853Z,3.60
2018-07-30T02:45:29.853Z,3.50
2018-07-30T02:47:22.796Z,3.80
2018-07-30T02:48:22.794Z,3.80
2018-07-30T02:50:15.722Z,3.80
2018-07-30T02:51:15.738Z,4.10
2018-07-30T02:53:08.691Z,4.20
2018-07-30T02:54:08.685Z,3.80
2018-07-30T02:56:01.620Z,3.90
2018-07-30T02:57:01.639Z,4.00
2018-07-30T02:58:54.593Z,3.90
2018-07-30T02:59:54.589Z,3.80
2018-07-30T03:01:47.516Z,3.80
2018-07-30T03:02:47.532Z,3.50
2018-07-30T03:04:40.485Z,3.50
2018-07-30T03:05:40.486Z,3.40
2018-07-30T03:07:33.436Z,3.90
2018-07-30T03:08:33.436Z,3.60
2018-07-30T03:10:26.363Z,3.50
2018-07-30T03:11:26.381Z,3.80
2018-07-30T03:13:19.335Z,3.70
2018-07-30T03:14:19.330Z,3.50
2018-07-30T03:16:12.259Z,3.60
2018-07-30T03:17:12.276Z,3.50
2018-07-30T03:19:05.230Z,3.70
2018-07-30T03:20:05.230Z,3.60
2018-07-30T03:21:58.165Z,3.40
2018-07-30T03:22:58.184Z,3.60
2018-07-30T03:24:51.132Z,3.60
2018-07-30T03:25:51.132Z,3.40
2018-07-30T03:27:44.081Z,3.70
2018-07-30T03:28:44.113Z,3.70
2018-07-30T03:30:37.012Z,3.40
2018-07-30T03:31:37.025Z,4.00
2018-07-30T03:33:29.984Z,3.50
2018-07-30T03:34:29.977Z,3.50
2018-07-30T03:36:22.909Z,3.50
2018-07-30T03:37:22.927Z,3.60
2018-07-30T03:39:15.881Z,3.60
2018-07-30T03:40:15.880Z,3.60
2018-07-30T03:42:08.840Z,3.40
2018-07-30T03:43:08.825Z,3.30
2018-07-30T03:45:01.836Z,3.60
2018-07-30T03:46:01.773Z,3.40
2018-07-30T03:47:54.770Z,3.40
2018-07-30T03:48:54.723Z,3.40
2018-07-30T03:50:47.673Z,3.40
2018-07-30T03:51:47.685Z,3.40
2018-07-30T03:53:40.635Z,3.20
2018-07-30T03:54:40.640Z,2.90
2018-07-30T03:56:33.564Z,3.20
2018-07-30T03:57:33.578Z,3.30
2018-07-30T03:59:26.536Z,3.40
2018-07-30T04:00:26.591Z,3.10
2018-07-30T04:02:19.462Z,3.10
2018-07-30T04:03:19.479Z,3.30
2018-07-30T04:05:12.428Z,3.60
2018-07-30T04:06:12.499Z,3.20
2018-07-30T04:08:05.384Z,3.40
2018-07-30T04:09:05.378Z,3.30
2018-07-30T04:10:58.325Z,3.30
2018-07-30T04:11:58.339Z,3.30
2018-07-30T04:13:51.294Z,3.10
2018-07-30T04:14:51.289Z,3.40
2018-07-30T04:16:44.222Z,3.40
2018-07-30T04:17:44.238Z,3.30
2018-07-30T04:19:37.190Z,3.20
2018-07-30T04:20:37.191Z,3.30
2018-07-30T04:22:30.119Z,3.30
2018-07-30T04:23:30.137Z,3.60
2018-07-30T04:25:23.093Z,3.50
2018-07-30T04:26:23.084Z,3.40
2018-07-30T04:28:16.040Z,3.40
2018-07-30T04:29:16.038Z,3.60
2018-07-30T04:31:08.971Z,3.80
2018-07-30T04:32:08.989Z,3.50
2018-07-30T04:34:01.943Z,3.20
2018-07-30T04:35:01.940Z,3.40
2018-07-30T04:36:54.904Z,3.60
2018-07-30T04:37:54.919Z,3.30
2018-07-30T04:39:47.874Z,3.20
2018-07-30T04:40:47.872Z,3.50
2018-07-30T04:42:40.807Z,3.60
2018-07-30T04:43:40.878Z,3.70
2018-07-30T04:45:33.784Z,3.30
2018-07-30T04:46:33.781Z,3.60
2018-07-30T04:48:26.739Z,3.60
2018-07-30T04:49:26.731Z,3.30
2018-07-30T04:51:19.659Z,3.40
2018-07-30T04:52:19.676Z,3.70
2018-07-30T04:54:12.629Z,3.60
2018-07-30T04:55:12.634Z,3.70
2018-07-30T04:57:05.636Z,4.20
2018-07-30T04:58:05.575Z,3.50
2018-07-30T04:59:58.531Z,4.10
2018-07-30T05:00:58.524Z,3.70
2018-07-30T05:02:51.465Z,3.70
2018-07-30T05:03:51.486Z,3.80
2018-07-30T05:05:44.433Z,3.90
2018-07-30T05:06:44.436Z,3.90
2018-07-30T05:08:37.389Z,4.30
2018-07-30T05:09:37.506Z,4.10
2018-07-30T05:11:30.317Z,4.70
2018-07-30T05:12:30.333Z,4.70
2018-07-30T05:14:23.291Z,4.30
2018-07-30T05:15:23.284Z,4.50
2018-07-30T05:17:16.220Z,4.40
2018-07-30T05:18:16.236Z,4.70
2018-07-30T05:20:09.192Z,4.60
2018-07-30T05:21:09.191Z,4.90
2018-07-30T05:23:02.127Z,4.80
2018-07-30T05:24:02.143Z,4.70
2018-07-30T05:25:55.100Z,5.10
2018-07-30T05:26:55.094Z,5.10
2018-07-30T05:28:48.047Z,5.40
2018-07-30T05:29:48.050Z,5.30
2018-07-30T05:31:41.026Z,4.90
2018-07-30T05:32:40.999Z,4.70
2018-07-30T05:34:33.952Z,4.70
2018-07-30T05:35:33.955Z,4.70
2018-07-30T05:37:26.886Z,5.30
2018-07-30T05:38:26.903Z,5.50
2018-07-30T05:40:19.858Z,5.50
2018-07-30T05:41:19.858Z,5.10
2018-07-30T05:43:12.797Z,4.60
2018-07-30T05:44:12.815Z,4.70
2018-07-30T05:46:05.764Z,4.60
2018-07-30T05:47:05.767Z,4.90
2018-07-30T05:48:59.217Z,5.00
2018-07-30T05:49:59.242Z,4.60
2018-07-30T05:51:52.173Z,4.50
2018-07-30T05:52:52.183Z,5.00
2018-07-30T05:54:45.134Z,5.10
2018-07-30T05:55:45.131Z,5.40
2018-07-30T05:57:38.065Z,4.80
2018-07-30T05:58:38.089Z,4.80
2018-07-30T06:00:31.037Z,4.60
2018-07-30T06:01:31.035Z,4.70
2018-07-30T06:03:23.970Z,4.60
2018-07-30T06:04:23.989Z,5.00
2018-07-30T06:06:16.952Z,4.80
2018-07-30T06:07:16.950Z,5.10
2018-07-30T06:09:09.917Z,4.80
2018-07-30T06:10:09.902Z,4.70
2018-07-30T06:12:02.837Z,5.30
2018-07-30T06:13:02.860Z,4.60
2018-07-30T06:14:55.812Z,4.70
2018-07-30T06:15:55.813Z,4.80
2018-07-30T06:17:48.745Z,4.90
2018-07-30T06:18:48.764Z,4.70
2018-07-30T06:20:41.718Z,4.50
2018-07-30T06:21:41.715Z,4.80
2018-07-30T06:23:34.658Z,4.60
2018-07-30T06:24:34.674Z,4.70
2018-07-30T06:26:27.697Z,5.20
2018-07-30T06:27:27.701Z,5.20
2018-07-30T06:29:20.582Z,5.20
2018-07-30T06:30:20.584Z,5.00
2018-07-30T06:32:13.537Z,5.60
2018-07-30T06:33:13.538Z,4.60
2018-07-30T06:35:06.529Z,5.00
2018-07-30T06:36:06.527Z,5.20
2018-07-30T06:37:59.466Z,4.60
2018-07-30T06:38:59.487Z,5.10
2018-07-30T06:40:52.446Z,4.80
2018-07-30T06:41:52.445Z,4.60
2018-07-30T06:43:45.381Z,4.40
2018-07-30T06:44:45.404Z,4.60
2018-07-30T06:46:38.355Z,4.80
2018-07-30T06:47:38.362Z,4.60
2018-07-30T06:49:31.314Z,4.70
2018-07-30T06:50:31.316Z,4.40
2018-07-30T06:52:24.275Z,4.40
2018-07-30T06:53:24.488Z,4.10
2018-07-30T06:55:17.235Z,4.00
2018-07-30T06:56:17.235Z,4.20
2018-07-30T06:58:10.186Z,4.00
2018-07-30T06:59:10.196Z,4.40
2018-07-30T07:01:03.161Z,4.40
2018-07-30T07:02:03.207Z,4.40
2018-07-30T07:03:56.104Z,4.60
2018-07-30T07:04:56.123Z,4.30
2018-07-30T07:06:49.087Z,4.00
2018-07-30T07:07:49.091Z,4.30
2018-07-30T07:09:42.038Z,4.20
2018-07-30T07:10:42.057Z,4.30
2018-07-30T07:12:35.027Z,4.30
2018-07-30T07:13:35.027Z,3.70
2018-07-30T07:15:27.986Z,4.20
2018-07-30T07:16:28.030Z,4.00
2018-07-30T07:18:20.930Z,4.20
2018-07-30T07:19:21.039Z,4.30
2018-07-30T07:21:13.939Z,4.80
2018-07-30T07:22:13.924Z,4.30
2018-07-30T07:24:06.866Z,5.00
2018-07-30T07:25:06.891Z,4.20
2018-07-30T07:26:59.921Z,4.40
2018-07-30T07:27:59.898Z,4.60
2018-07-30T07:29:52.834Z,4.40
2018-07-30T07:30:52.824Z,4.20
2018-07-30T07:32:45.769Z,4.60
2018-07-30T07:33:45.794Z,3.90
2018-07-30T07:35:38.764Z,5.80
2018-07-30T07:36:38.761Z,4.30
2018-07-30T07:38:31.723Z,4.50
2018-07-30T07:39:31.742Z,4.40
2018-07-30T07:41:24.710Z,4.20
2018-07-30T07:42:24.718Z,4.30
2018-07-30T07:44:17.657Z,4.10
2018-07-30T07:45:17.683Z,4.00
2018-07-30T07:47:10.646Z,3.90
2018-07-30T07:48:10.651Z,4.20
2018-07-30T07:50:03.657Z,3.90
2018-07-30T07:51:03.839Z,3.90
2018-07-30T07:52:56.604Z,3.80
2018-07-30T07:53:56.603Z,4.10
2018-07-30T07:55:49.577Z,3.60
2018-07-30T07:56:49.581Z,3.90
2018-07-30T07:58:42.542Z,4.20
2018-07-30T07:59:42.564Z,3.60
2018-07-30T08:01:35.529Z,3.30
2018-07-30T08:02:35.538Z,3.50
2018-07-30T08:04:28.484Z,3.40
2018-07-30T08:05:28.513Z,3.70
2018-07-30T08:07:21.483Z,3.50
2018-07-30T08:08:21.491Z,3.50
2018-07-30T08:10:14.434Z,3.50
2018-07-30T08:11:14.461Z,3.30
2018-07-30T08:13:07.430Z,3.70
2018-07-30T08:14:07.435Z,3.60
2018-07-30T08:16:00.406Z,3.60
2018-07-30T08:17:00.410Z,3.30
2018-07-30T08:18:53.356Z,3.10
2018-07-30T08:19:53.382Z,3.20
2018-07-30T08:21:46.348Z,3.30
2018-07-30T08:22:46.354Z,3.50
2018-07-30T08:24:39.297Z,3.90
2018-07-30T08:25:39.325Z,4.30
2018-07-30T08:27:32.289Z,3.10
2018-07-30T08:28:32.290Z,3.10
2018-07-30T08:30:25.266Z,2.80
2018-07-30T08:31:25.268Z,2.90
2018-07-30T08:33:18.216Z,2.80
2018-07-30T08:34:18.233Z,2.90
2018-07-30T08:36:11.215Z,2.90
2018-07-30T08:37:11.220Z,3.10
2018-07-30T08:39:04.162Z,3.30
2018-07-30T08:40:04.187Z,3.20
2018-07-30T08:41:57.154Z,3.20
2018-07-30T08:42:57.154Z,2.70
2018-07-30T08:44:50.102Z,2.70
2018-07-30T08:45:50.123Z,3.40
2018-07-30T08:47:43.087Z,3.40
2018-07-30T08:48:43.104Z,3.50
2018-07-30T08:50:36.036Z,3.30
2018-07-30T08:51:36.057Z,3.40
2018-07-30T08:53:29.027Z,3.00
2018-07-30T08:54:29.027Z,2.50
2018-07-30T08:56:21.991Z,2.70
2018-07-30T08:57:21.990Z,2.70
2018-07-30T08:59:14.936Z,3.20
2018-07-30T09:00:14.960Z,2.60
2018-07-30T09:02:07.920Z,3.10
2018-07-30T09:03:07.923Z,2.60
2018-07-30T09:05:00.869Z,2.70
2018-07-30T09:06:00.888Z,2.90
2018-07-30T09:07:53.860Z,3.00
2018-07-30T09:08:53.861Z,2.60
2018-07-30T09:10:46.805Z,3.10
2018-07-30T09:11:46.825Z,3.00
2018-07-30T09:13:39.792Z,2.70
2018-07-30T09:14:39.797Z,2.90
2018-07-30T09:16:32.757Z,2.30
2018-07-30T09:17:32.759Z,2.50
2018-07-30T09:19:25.703Z,2.70
2018-07-30T09:20:25.728Z,2.60
2018-07-30T09:22:18.687Z,2.80
2018-07-30T09:23:18.692Z,2.50
2018-07-30T09:25:11.632Z,2.60
2018-07-30T09:26:11.652Z,3.10
2018-07-30T09:28:04.617Z,2.50
2018-07-30T09:29:04.617Z,2.40
2018-07-30T09:30:57.564Z,2.60
2018-07-30T09:31:57.585Z,2.60
2018-07-30T09:33:50.548Z,2.60
2018-07-30T09:34:50.550Z,2.70
2018-07-30T09:36:43.519Z,2.60
2018-07-30T09:37:43.519Z,2.80
2018-07-30T09:39:36.477Z,2.90
2018-07-30T09:40:36.483Z,2.60
2018-07-30T09:42:29.452Z,2.70
2018-07-30T09:43:29.454Z,2.70
2018-07-30T09:45:22.405Z,3.00
2018-07-30T09:46:22.420Z,2.60
2018-07-30T09:48:15.389Z,2.70
2018-07-30T09:49:15.388Z,2.80
2018-07-30T09:51:08.328Z,3.20
2018-07-30T09:52:08.347Z,2.60
2018-07-30T09:54:01.309Z,2.70
2018-07-30T09:55:01.315Z,2.70
2018-07-30T09:56:54.284Z,2.80
2018-07-30T09:57:54.282Z,2.60
2018-07-30T09:59:47.219Z,2.60
2018-07-30T10:00:47.247Z,2.70
2018-07-30T10:02:40.206Z,2.70
2018-07-30T10:03:40.207Z,2.90
2018-07-30T10:05:33.156Z,2.70
2018-07-30T10:06:33.176Z,2.60
2018-07-30T10:08:26.134Z,2.60
2018-07-30T10:09:26.133Z,2.50
2018-07-30T10:11:19.081Z,2.60
2018-07-30T10:12:19.110Z,2.70
2018-07-30T10:14:12.065Z,2.60
2018-07-30T10:15:12.067Z,2.80
2018-07-30T10:17:05.051Z,2.70
2018-07-30T10:18:05.128Z,2.80
2018-07-30T10:19:57.974Z,2.70
2018-07-30T10:20:58.007Z,2.70
2018-07-30T10:22:50.962Z,2.80
2018-07-30T10:23:50.995Z,2.50
2018-07-30T10:25:43.914Z,2.70
2018-07-30T10:26:43.934Z,2.60
2018-07-30T10:28:36.898Z,3.00
2018-07-30T10:29:36.898Z,2.70
2018-07-30T10:31:29.844Z,2.80
2018-07-30T10:32:29.866Z,2.40
2018-07-30T10:34:22.863Z,2.60
2018-07-30T10:35:22.831Z,2.50
2018-07-30T10:37:15.788Z,2.50
2018-07-30T10:38:15.926Z,2.40
2018-07-30T10:40:08.738Z,2.60
2018-07-30T10:41:08.760Z,2.10
2018-07-30T10:43:01.727Z,2.50
2018-07-30T10:44:01.724Z,2.40
2018-07-30T10:45:54.670Z,2.60
2018-07-30T10:46:54.696Z,2.60
2018-07-30T10:48:47.662Z,2.40
2018-07-30T10:49:47.661Z,2.60
2018-07-30T10:51:40.669Z,2.10
2018-07-30T10:52:40.628Z,2.50
2018-07-30T10:54:33.588Z,2.20
2018-07-30T10:55:33.590Z,3.10
2018-07-30T10:57:26.556Z,2.60
2018-07-30T10:58:26.557Z,2.60
2018-07-30T11:00:19.518Z,2.70
2018-07-30T11:01:19.544Z,2.50
2018-07-30T11:03:12.504Z,2.60
2018-07-30T11:04:12.507Z,2.40
2018-07-30T11:06:05.451Z,2.30
2018-07-30T11:07:05.477Z,2.60
2018-07-30T11:08:58.435Z,2.20
2018-07-30T11:09:58.438Z,2.40
2018-07-30T11:11:51.401Z,2.30
2018-07-30T11:12:51.407Z,2.60
2018-07-30T11:14:44.399Z,2.40
2018-07-30T11:15:44.378Z,2.50
2018-07-30T11:17:37.340Z,2.20
2018-07-30T11:18:37.340Z,2.20
2018-07-30T11:20:30.304Z,2.50
2018-07-30T11:21:30.348Z,2.60
2018-07-30T11:23:23.295Z,2.40
2018-07-30T11:24:23.294Z,2.30
2018-07-30T11:26:16.243Z,2.40
2018-07-30T11:27:16.266Z,2.40
2018-07-30T11:29:09.226Z,2.60
2018-07-30T11:30:09.234Z,2.30
2018-07-30T11:32:02.182Z,2.10
2018-07-30T11:33:02.203Z,2.20
2018-07-30T11:34:55.169Z,2.20
2018-07-30T11:35:55.171Z,2.20
2018-07-30T11:37:48.192Z,2.40
2018-07-30T11:38:48.254Z,2.30
2018-07-30T11:40:41.134Z,2.30
2018-07-30T11:41:41.157Z,2.30
2018-07-30T11:43:34.181Z,2.20
2018-07-30T11:44:34.125Z,2.30
2018-07-30T11:46:27.071Z,2.30
2018-07-30T11:47:27.117Z,2.60
2018-07-30T11:49:20.054Z,2.40
2018-07-30T11:50:20.057Z,2.20
2018-07-30T11:52:13.006Z,2.40
2018-07-30T11:53:13.032Z,2.40
2018-07-30T11:55:05.999Z,2.50
2018-07-30T11:56:06.004Z,2.50
2018-07-30T11:57:58.972Z,2.60
2018-07-30T11:58:58.975Z,2.40
2018-07-30T12:00:51.918Z,2.40
2018-07-30T12:01:51.978Z,2.50
2018-07-30T12:03:44.910Z,2.50
2018-07-30T12:04:44.912Z,2.70
2018-07-30T12:06:37.858Z,2.40
2018-07-30T12:07:37.880Z,2.50
2018-07-30T12:09:30.850Z,2.40
2018-07-30T12:10:30.851Z,2.60
2018-07-30T12:12:23.815Z,2.60
2018-07-30T12:13:23.828Z,2.30
2018-07-30T12:15:16.793Z,2.20
2018-07-30T12:16:16.787Z,2.60
2018-07-30T12:18:09.821Z,2.20
2018-07-30T12:19:09.815Z,2.20
2018-07-30T12:21:02.854Z,2.20
2018-07-30T12:22:02.874Z,2.20
2018-07-30T12:23:55.931Z,2.30
2018-07-30T12:24:55.968Z,2.30
2018-07-30T12:26:48.975Z,2.40
2018-07-30T12:27:48.995Z,2.30
2018-07-30T12:29:42.046Z,2.20
2018-07-30T12:30:42.148Z,2.40
2018-07-30T12:32:34.990Z,2.50
2018-07-30T12:33:35.016Z,2.30
2018-07-30T12:35:27.981Z,2.10
2018-07-30T12:36:27.993Z,2.40
2018-07-30T12:38:20.947Z,2.40
2018-07-30T12:39:20.951Z,2.20
2018-07-30T12:41:13.893Z,2.20
2018-07-30T12:42:13.917Z,2.10
2018-07-30T12:44:06.893Z,2.50
2018-07-30T12:45:06.896Z,2.30
2018-07-30T12:46:59.850Z,2.30
2018-07-30T12:47:59.875Z,2.10
2018-07-30T12:49:52.841Z,2.70
2018-07-30T12:50:52.913Z,2.10
2018-07-30T12:52:45.789Z,2.40
2018-07-30T12:53:45.816Z,2.30
2018-07-30T12:55:38.784Z,2.10
2018-07-30T12:56:38.792Z,2.40
2018-07-30T12:58:31.756Z,2.30
2018-07-30T12:59:31.763Z,2.40
2018-07-30T13:01:24.706Z,2.50
2018-07-30T13:02:24.730Z,2.60
2018-07-30T13:04:17.694Z,2.30
2018-07-30T13:05:17.698Z,2.40
2018-07-30T13:07:10.645Z,2.10
2018-07-30T13:08:10.691Z,2.20
2018-07-30T13:10:03.636Z,2.50
2018-07-30T13:11:03.646Z,2.40
2018-07-30T13:12:56.583Z,2.80
2018-07-30T13:13:56.610Z,2.30
2018-07-30T13:15:49.573Z,2.20
2018-07-30T13:16:49.581Z,2.70
2018-07-30T13:18:42.550Z,2.60
2018-07-30T13:19:42.555Z,2.40
2018-07-30T13:21:35.496Z,2.40
2018-07-30T13:22:35.520Z,2.20
2018-07-30T13:24:28.503Z,2.50
2018-07-30T13:25:28.495Z,2.20
2018-07-30T13:27:21.437Z,2.60
2018-07-30T13:28:21.460Z,2.60
2018-07-30T13:30:14.425Z,2.60
2018-07-30T13:31:14.428Z,2.60
2018-07-30T13:33:07.374Z,2.50
2018-07-30T13:34:07.392Z,2.30
2018-07-30T13:36:00.367Z,2.50
2018-07-30T13:37:00.364Z,2.40
2018-07-30T13:38:53.341Z,2.30
2018-07-30T13:39:53.334Z,2.60
2018-07-30T13:41:46.292Z,2.40
2018-07-30T13:42:46.316Z,2.50
2018-07-30T13:44:39.350Z,2.60
2018-07-30T13:45:39.285Z,2.30
2018-07-30T13:47:32.227Z,2.80
2018-07-30T13:48:32.253Z,2.50
2018-07-30T13:50:25.216Z,2.60
2018-07-30T13:51:25.223Z,2.30
2018-07-30T13:53:18.168Z,2.30
2018-07-30T13:54:18.227Z,2.80
2018-07-30T13:56:11.163Z,2.50
2018-07-30T13:57:11.162Z,2.40
2018-07-30T13:59:04.126Z,2.50
2018-07-30T14:00:04.129Z,2.50
2018-07-30T14:01:57.080Z,2.30
2018-07-30T14:02:57.107Z,2.20
2018-07-30T14:04:50.073Z,2.50
2018-07-30T14:05:50.077Z,2.30
2018-07-30T14:07:43.018Z,2.30
2018-07-30T14:08:43.045Z,2.30
2018-07-30T14:10:36.016Z,2.20
2018-07-30T14:11:36.023Z,2.30
2018-07-30T14:13:28.967Z,2.20
2018-07-30T14:14:28.987Z,2.30
2018-07-30T14:16:21.978Z,2.20
2018-07-30T14:17:22.000Z,2.10
2018-07-30T14:19:14.948Z,2.50
2018-07-30T14:20:15.009Z,2.20
2018-07-30T14:22:07.901Z,2.30
2018-07-30T14:23:07.925Z,2.30
2018-07-30T14:25:00.895Z,2.60
2018-07-30T14:26:00.898Z,2.30
2018-07-30T14:27:53.843Z,2.40
2018-07-30T14:28:53.868Z,2.20
2018-07-30T14:30:46.852Z,2.30
2018-07-30T14:31:46.851Z,2.30
2018-07-30T14:33:39.787Z,2.20
2018-07-30T14:34:39.807Z,2.10
2018-07-30T14:36:32.846Z,2.20
2018-07-30T14:37:32.778Z,2.60
2018-07-30T14:39:25.743Z,2.20
2018-07-30T14:40:25.750Z,2.30
2018-07-30T14:42:18.698Z,2.40
2018-07-30T14:43:18.723Z,2.10
2018-07-30T14:45:11.692Z,2.10
2018-07-30T14:46:11.696Z,2.30
2018-07-30T14:48:04.640Z,2.40
2018-07-30T14:49:04.666Z,2.30
2018-07-30T14:50:57.635Z,2.00
2018-07-30T14:51:57.634Z,2.30
2018-07-30T14:53:50.588Z,2.40
2018-07-30T14:54:50.609Z,2.30
2018-07-30T14:56:43.573Z,2.70
2018-07-30T14:57:43.580Z,2.30
2018-07-30T14:59:36.593Z,2.40
2018-07-30T15:00:36.553Z,2.30
2018-07-30T15:02:29.534Z,2.30
2018-07-30T15:03:29.525Z,2.10
2018-07-30T15:05:22.494Z,2.60
2018-07-30T15:06:22.505Z,2.50
2018-07-30T15:08:15.443Z,2.30
2018-07-30T15:09:15.466Z,2.40
2018-07-30T15:11:08.430Z,2.30
2018-07-30T15:12:08.469Z,2.10
2018-07-30T15:14:01.380Z,2.30
2018-07-30T15:15:01.403Z,2.40
2018-07-30T15:16:54.368Z,2.40
2018-07-30T15:17:54.374Z,2.10
2018-07-30T15:19:47.335Z,2.20
2018-07-30T15:20:47.339Z,2.30
2018-07-30T15:22:40.283Z,2.30
2018-07-30T15:23:40.309Z,2.40
2018-07-30T15:25:33.276Z,2.10
2018-07-30T15:26:33.280Z,2.30
2018-07-30T15:28:26.230Z,2.40
2018-07-30T15:29:26.251Z,2.30
2018-07-30T15:31:19.223Z,1.80
2018-07-30T15:32:19.226Z,2.30
2018-07-30T15:34:12.182Z,2.00
2018-07-30T15:35:12.205Z,2.10
2018-07-30T15:37:05.166Z,2.10
2018-07-30T15:38:05.172Z,2.20
2018-07-30T15:39:58.136Z,2.20
2018-07-30T15:40:58.134Z,2.20
2018-07-30T15:42:51.083Z,2.10
2018-07-30T15:43:51.107Z,1.90
2018-07-30T15:45:44.072Z,2.20
2018-07-30T15:46:44.112Z,2.00
2018-07-30T15:48:37.025Z,2.20
2018-07-30T15:49:37.046Z,2.20
2018-07-30T15:51:30.014Z,2.10
2018-07-30T15:52:30.018Z,2.30
2018-07-30T15:54:22.959Z,2.00
2018-07-30T15:55:22.985Z,2.00
2018-07-30T15:57:15.952Z,2.20
2018-07-30T15:58:15.954Z,2.10
2018-07-30T16:00:08.918Z,2.20
2018-07-30T16:01:08.925Z,2.30
2018-07-30T16:03:01.884Z,2.20
2018-07-30T16:04:01.903Z,2.40
2018-07-30T16:05:54.891Z,1.90
2018-07-30T16:06:54.869Z,2.60
2018-07-30T16:08:47.815Z,2.10
2018-07-30T16:09:47.841Z,2.20
2018-07-30T16:11:40.806Z,2.30
2018-07-30T16:12:40.813Z,2.20
2018-07-30T16:14:33.757Z,2.10
2018-07-30T16:15:33.782Z,2.20
2018-07-30T16:17:26.743Z,2.10
2018-07-30T16:18:26.748Z,2.00
2018-07-30T16:20:19.711Z,2.20
2018-07-30T16:21:19.715Z,2.30
2018-07-30T16:23:12.711Z,2.40
2018-07-30T16:24:12.696Z,2.00
2018-07-30T16:26:05.695Z,2.10
2018-07-30T16:27:05.660Z,2.20
2018-07-30T16:28:58.606Z,2.00
2018-07-30T16:29:58.626Z,2.10
2018-07-30T16:31:51.601Z,2.30
2018-07-30T16:32:51.604Z,2.10
2018-07-30T16:34:44.546Z,2.30
2018-07-30T16:35:44.571Z,2.10
2018-07-30T16:37:37.530Z,2.30
2018-07-30T16:38:37.538Z,2.50
2018-07-30T16:40:30.506Z,2.30
2018-07-30T16:41:30.519Z,2.20
2018-07-30T16:43:23.449Z,2.20
2018-07-30T16:44:23.472Z,2.50
2018-07-30T16:46:16.439Z,2.20
2018-07-30T16:47:16.465Z,2.10
2018-07-30T16:49:09.382Z,2.10
2018-07-30T16:50:09.403Z,2.10
2018-07-30T16:52:02.369Z,2.10
2018-07-30T16:53:02.368Z,2.10
2018-07-30T16:54:55.336Z,1.90
2018-07-30T16:55:55.346Z,2.20
2018-07-30T16:57:48.316Z,2.10
2018-07-30T16:58:48.359Z,2.20
2018-07-30T17:00:41.278Z,2.50
2018-07-30T17:01:41.279Z,2.50
2018-07-30T17:03:34.222Z,2.30
2018-07-30T17:04:34.263Z,2.10
2018-07-30T17:06:27.213Z,2.30
2018-07-30T17:07:27.215Z,2.30
2018-07-30T17:09:20.172Z,2.20
2018-07-30T17:10:20.178Z,2.10
2018-07-30T17:12:13.141Z,2.30
2018-07-30T17:13:13.141Z,2.10
2018-07-30T17:15:06.089Z,2.10
2018-07-30T17:16:06.108Z,2.10
2018-07-30T17:17:59.071Z,2.00
2018-07-30T17:18:59.074Z,2.20
2018-07-30T17:20:52.037Z,2.30
2018-07-30T17:21:52.035Z,2.20
2018-07-30T17:23:44.990Z,2.30
2018-07-30T17:24:45.019Z,2.40
2018-07-30T17:26:37.972Z,2.20
2018-07-30T17:27:37.973Z,2.20
2018-07-30T17:29:30.914Z,2.30
2018-07-30T17:30:30.937Z,2.10
2018-07-30T17:32:23.895Z,1.90
2018-07-30T17:33:23.896Z,2.20
2018-07-30T17:35:16.843Z,2.30
2018-07-30T17:36:16.862Z,2.20
2018-07-30T17:38:09.876Z,2.40
2018-07-30T17:39:09.852Z,2.20
2018-07-30T17:41:02.811Z,2.20
2018-07-30T17:42:02.884Z,2.10
2018-07-30T17:43:55.753Z,2.00
2018-07-30T17:44:55.776Z,2.20
2018-07-30T17:46:48.737Z,2.20
2018-07-30T17:47:48.742Z,2.20
2018-07-30T17:49:41.681Z,2.10
2018-07-30T17:50:41.701Z,2.00
2018-07-30T17:52:34.661Z,2.10
2018-07-30T17:53:34.665Z,2.20
2018-07-30T17:55:27.605Z,2.10
2018-07-30T17:56:27.632Z,2.10
2018-07-30T17:58:20.601Z,2.00
2018-07-30T17:59:20.601Z,2.00
2018-07-30T18:01:13.562Z,2.10
2018-07-30T18:02:13.569Z,2.50
2018-07-30T18:04:06.520Z,1.80
2018-07-30T18:05:06.529Z,2.10
2018-07-30T18:06:59.489Z,2.50
2018-07-30T18:07:59.492Z,2.10
2018-07-30T18:09:52.430Z,2.10
2018-07-30T18:10:52.457Z,2.20
2018-07-30T18:12:45.412Z,2.00
2018-07-30T18:13:45.423Z,2.20
2018-07-30T18:15:38.362Z,2.10
2018-07-30T18:16:38.376Z,1.90
2018-07-30T18:18:31.344Z,2.20
2018-07-30T18:19:31.342Z,2.30
2018-07-30T18:21:24.303Z,2.20
2018-07-30T18:22:24.305Z,1.90
2018-07-30T18:24:17.290Z,2.00
2018-07-30T18:25:17.272Z,2.00
2018-07-30T18:27:10.228Z,1.90
2018-07-30T18:28:10.228Z,2.20
2018-07-30T18:30:03.180Z,2.10
2018-07-30T18:31:03.203Z,2.20
2018-07-30T18:32:56.164Z,1.90
2018-07-30T18:33:56.166Z,2.30
2018-07-30T18:35:49.108Z,1.80
2018-07-30T18:36:49.126Z,2.30
2018-07-30T18:38:42.087Z,2.50
2018-07-30T18:39:42.088Z,2.80
2018-07-30T18:41:35.054Z,2.10
2018-07-30T18:42:35.056Z,2.10
2018-07-30T18:44:27.998Z,2.00
2018-07-30T18:45:28.017Z,2.20
2018-07-30T18:47:20.976Z,2.00
2018-07-30T18:48:20.976Z,2.00
2018-07-30T18:50:13.918Z,1.90
2018-07-30T18:51:13.941Z,1.90
2018-07-30T18:53:06.896Z,2.00
2018-07-30T18:54:06.898Z,1.80
2018-07-30T18:55:59.850Z,1.90
2018-07-30T18:56:59.858Z,1.70
2018-07-30T18:58:52.817Z,2.10
2018-07-30T18:59:52.813Z,1.80
2018-07-30T19:01:45.782Z,1.90
2018-07-30T19:02:45.779Z,1.80
2018-07-30T19:04:38.726Z,1.80
2018-07-30T19:05:38.741Z,1.70
2018-07-30T19:07:31.696Z,1.80
2018-07-30T19:08:31.698Z,2.30
2018-07-30T19:10:24.628Z,1.80
2018-07-30T19:11:24.654Z,1.60
2018-07-30T19:13:17.620Z,1.80
2018-07-30T19:14:17.621Z,1.90
2018-07-30T19:16:10.574Z,1.90
2018-07-30T19:17:10.585Z,1.80
2018-07-30T19:19:03.544Z,2.10
2018-07-30T19:20:03.545Z,2.00
2018-07-30T19:21:56.509Z,1.90
2018-07-30T19:22:56.510Z,2.00
2018-07-30T19:24:49.448Z,2.00
2018-07-30T19:25:49.468Z,2.10
2018-07-30T19:27:42.433Z,2.20
2018-07-30T19:28:42.433Z,2.20
2018-07-30T19:30:35.376Z,1.80
2018-07-30T19:31:35.390Z,1.70
2018-07-30T19:33:28.355Z,2.20
2018-07-30T19:34:28.353Z,1.90
2018-07-30T19:36:21.293Z,2.10
2018-07-30T19:37:21.335Z,2.10
2018-07-30T19:39:14.273Z,1.80
2018-07-30T19:40:14.267Z,1.90